Time;durP1;ratioP1;P1;durP2;ratioP2;P2;SDS_P1;SDS_P2;PMS_P1;PMS_P2;Temp;Humidity;BMP_temperature;BMP_pressure;BME280_temperature;BME280_humidity;BME280_pressure;Samples;Min_cycle;Max_cycle;Signal;HPM_P1;HPM_P2
2023/12/14 00:01:42;;;;;;;209.90;31.90;;;;;;;;;;4853783;29;20040;-90
2023/12/14 00:04:09;;;;;;;225.38;32.30;;;;;;;;;;4857850;29;20036;-91
2023/12/14 00:06:36;;;;;;;213.77;33.30;;;;;;;;;;4837030;29;20128;-90
2023/12/14 00:09:02;;;;;;;279.77;36.83;;;;;;;;;;4857413;29;20048;-90
2023/12/14 00:11:29;;;;;;;310.98;38.72;;;;;;;;;;4839352;29;20048;-90
2023/12/14 00:13:56;;;;;;;345.27;43.60;;;;;;;;;;4844508;29;20124;-90
2023/12/14 00:16:22;;;;;;;384.80;43.58;;;;;;;;;;4833853;29;20144;-91
2023/12/14 00:18:49;;;;;;;306.83;39.05;;;;;;;;;;4847367;29;20832;-90
2023/12/14 00:21:16;;;;;;;240.93;31.95;;;;;;;;;;4842381;29;20044;-90
2023/12/14 00:23:42;;;;;;;263.10;37.05;;;;;;;;;;4831785;29;20813;-90
2023/12/14 00:26:09;;;;;;;276.17;37.63;;;;;;;;;;4844553;29;20228;-90
2023/12/14 00:28:35;;;;;;;279.23;38.83;;;;;;;;;;4840447;29;20372;-90
2023/12/14 00:31:02;;;;;;;287.73;39.13;;;;;;;;;;4849722;29;20810;-90
2023/12/14 00:33:29;;;;;;;254.13;36.13;;;;;;;;;;4821694;29;21025;-91
2023/12/14 00:35:55;;;;;;;206.75;32.38;;;;;;;;;;4844590;29;20071;-90
2023/12/14 00:38:22;;;;;;;102.55;24.35;;;;;;;;;;4870802;29;20551;-90
2023/12/14 00:40:49;;;;;;;127.18;26.63;;;;;;;;;;4882802;29;20040;-89
2023/12/14 00:43:15;;;;;;;128.00;26.10;;;;;;;;;;4872374;29;21071;-90
2023/12/14 00:45:42;;;;;;;71.50;21.92;;;;;;;;;;4881743;29;20050;-89
2023/12/14 00:48:09;;;;;;;95.63;22.50;;;;;;;;;;4877314;29;20463;-90
2023/12/14 00:50:35;;;;;;;123.90;27.42;;;;;;;;;;4855697;29;20038;-91
2023/12/14 00:53:02;;;;;;;133.50;27.15;;;;;;;;;;4848710;29;20151;-90
2023/12/14 00:55:29;;;;;;;127.00;26.63;;;;;;;;;;4872849;29;20036;-90
2023/12/14 00:57:55;;;;;;;109.93;25.80;;;;;;;;;;4881893;29;20157;-90
2023/12/14 01:00:22;;;;;;;82.60;23.23;;;;;;;;;;4872422;29;20041;-90
2023/12/14 01:02:49;;;;;;;104.90;22.02;;;;;;;;;;4876994;29;20123;-90
2023/12/14 01:05:16;;;;;;;92.03;22.13;;;;;;;;;;4870003;29;20048;-90
2023/12/14 01:07:42;;;;;;;126.30;26.45;;;;;;;;;;4861355;29;20541;-89
2023/12/14 01:10:09;;;;;;;136.52;25.30;;;;;;;;;;4867450;29;20045;-90
2023/12/14 01:12:36;;;;;;;126.22;25.10;;;;;;;;;;4862919;29;20045;-90
2023/12/14 01:15:03;;;;;;;89.93;23.02;;;;;;;;;;4856092;29;20041;-89
2023/12/14 01:17:30;;;;;;;140.00;26.75;;;;;;;;;;4865246;29;20059;-89
2023/12/14 01:19:57;;;;;;;132.88;26.55;;;;;;;;;;4843725;29;20067;-90
2023/12/14 01:22:23;;;;;;;143.23;27.92;;;;;;;;;;4853244;29;20150;-90
2023/12/14 01:24:50;;;;;;;140.25;31.58;;;;;;;;;;4868930;29;20441;-90
2023/12/14 01:27:16;;;;;;;162.85;31.73;;;;;;;;;;4841719;29;20083;-90
2023/12/14 01:29:43;;;;;;;139.10;25.75;;;;;;;;;;4869927;29;20836;-90
2023/12/14 01:32:09;;;;;;;129.80;27.15;;;;;;;;;;4852541;29;20130;-91
2023/12/14 01:34:36;;;;;;;152.13;27.02;;;;;;;;;;4857623;29;20047;-90
2023/12/14 01:37:03;;;;;;;173.20;30.83;;;;;;;;;;4862694;29;20044;-90
2023/12/14 01:39:30;;;;;;;187.65;32.92;;;;;;;;;;4862310;29;20040;-90
2023/12/14 01:41:56;;;;;;;156.45;33.45;;;;;;;;;;4863988;29;20055;-90
2023/12/14 01:44:23;;;;;;;178.80;33.17;;;;;;;;;;4856454;29;20231;-89
2023/12/14 01:46:50;;;;;;;193.65;34.35;;;;;;;;;;4870604;29;20037;-90
2023/12/14 01:49:16;;;;;;;196.40;33.53;;;;;;;;;;4857124;29;20329;-89
2023/12/14 01:51:43;;;;;;;239.63;36.38;;;;;;;;;;4843472;29;20047;-90
2023/12/14 01:54:09;;;;;;;215.40;33.28;;;;;;;;;;4853868;29;20905;-90
2023/12/14 01:56:36;;;;;;;179.32;28.67;;;;;;;;;;4840429;29;20048;-90
2023/12/14 01:59:03;;;;;;;189.25;28.25;;;;;;;;;;4845779;29;20056;-90
2023/12/14 02:07:30;;;;;;;191.43;29.02;;;;;;;;;;3050596;27;20159;-93
2023/12/14 02:14:14;;;;;;;210.60;30.08;;;;;;;;;;4805070;29;20059;-92
2023/12/14 02:16:52;;;;;;;362.95;43.63;;;;;;;;;;4805083;29;20143;-92
2023/12/14 02:19:49;;;;;;;308.02;39.03;;;;;;;;;;4822079;29;20049;-92
2023/12/14 02:23:03;;;;;;;;;;;;;;;;;;;;;
2023/12/14 02:25:40;;;;;;;352.85;43.83;;;;;;;;;;4821226;29;20574;-92
2023/12/14 02:28:24;;;;;;;267.17;34.03;;;;;;;;;;4805716;29;20051;-93
2023/12/14 02:31:48;;;;;;;245.75;33.38;;;;;;;;;;4804653;29;20037;-92
2023/12/14 02:35:18;;;;;;;205.63;29.77;;;;;;;;;;4804432;29;20041;-92
2023/12/14 02:38:22;;;;;;;226.63;32.88;;;;;;;;;;4820890;29;20079;-92
2023/12/14 02:41:27;;;;;;;310.08;36.90;;;;;;;;;;4832627;29;20036;-93
2023/12/14 02:44:28;;;;;;;264.65;34.70;;;;;;;;;;4803706;29;20041;-92
2023/12/14 02:47:31;;;;;;;193.27;27.08;;;;;;;;;;4814405;29;20053;-92
2023/12/14 02:53:45;;;;;;;420.05;47.22;;;;;;;;;;4828648;29;20049;-92
2023/12/14 02:56:38;;;;;;;445.52;48.83;;;;;;;;;;4807092;29;20135;-92
2023/12/14 02:59:22;;;;;;;452.10;50.00;;;;;;;;;;4819480;29;20036;-92
2023/12/14 03:05:05;;;;;;;375.55;44.00;;;;;;;;;;4837196;29;20044;-92
2023/12/14 03:08:21;;;;;;;;;;;;;;;;;;4815547;29;20075;-91
2023/12/14 03:11:00;;;;;;;315.50;37.25;;;;;;;;;;4820639;29;19923;-92
2023/12/14 03:13:46;;;;;;;278.95;37.17;;;;;;;;;;4813423;29;20057;-92
2023/12/14 03:16:22;;;;;;;214.85;30.30;;;;;;;;;;4810157;29;20567;-92
2023/12/14 03:19:08;;;;;;;223.57;31.80;;;;;;;;;;4808604;29;20080;-92
2023/12/14 03:21:48;;;;;;;;;;;;;;;;;;;;;
2023/12/14 03:24:24;;;;;;;228.65;33.33;;;;;;;;;;4836347;29;20043;-92
2023/12/14 03:26:56;;;;;;;197.02;27.88;;;;;;;;;;4813145;29;20052;-92
2023/12/14 03:29:42;;;;;;;;;;;;;;;;;;;;;
2023/12/14 03:32:42;;;;;;;269.70;35.03;;;;;;;;;;4830369;29;20869;-92
2023/12/14 03:35:46;;;;;;;300.58;37.33;;;;;;;;;;4804266;29;20045;-92
2023/12/14 03:43:06;;;;;;;;;;;;;;;;;;;;;
2023/12/14 03:50:04;;;;;;;160.80;24.50;;;;;;;;;;4760155;29;20050;-92
2023/12/14 03:52:50;;;;;;;204.82;27.83;;;;;;;;;;4756872;29;20162;-93
2023/12/14 03:56:48;;;;;;;232.85;29.73;;;;;;;;;;4742448;29;20569;-92
2023/12/14 03:59:10;;;;;;;369.13;41.90;;;;;;;;;;4727325;29;20055;-92
2023/12/14 04:02:01;;;;;;;350.67;39.58;;;;;;;;;;4728560;29;20084;-91
2023/12/14 04:04:34;;;;;;;394.90;44.58;;;;;;;;;;4717124;29;20050;-92
2023/12/14 04:07:13;;;;;;;;;;;;;;;;;;4750186;29;20061;-92
2023/12/14 04:10:08;;;;;;;271.25;32.55;;;;;;;;;;4753573;29;19924;-92
2023/12/14 04:13:15;;;;;;;255.32;33.30;;;;;;;;;;4757861;29;20161;-92
2023/12/14 04:15:56;;;;;;;;;;;;;;;;;;4736348;29;20043;-91
2023/12/14 04:19:10;;;;;;;220.55;28.58;;;;;;;;;;4815757;29;20127;-92
2023/12/14 04:22:07;;;;;;;364.23;40.53;;;;;;;;;;4807724;29;20070;-92
2023/12/14 04:25:02;;;;;;;349.33;42.28;;;;;;;;;;4824693;29;20072;-92
2023/12/14 04:27:46;;;;;;;412.65;49.03;;;;;;;;;;4793085;29;20057;-92
2023/12/14 04:30:30;;;;;;;432.95;50.10;;;;;;;;;;4812941;29;20108;-92
2023/12/14 04:33:25;;;;;;;380.95;44.88;;;;;;;;;;4804890;29;20217;-91
2023/12/14 04:36:08;;;;;;;436.55;49.35;;;;;;;;;;4789993;29;20053;-92
2023/12/14 04:38:55;;;;;;;282.58;35.08;;;;;;;;;;4816718;29;20059;-92
2023/12/14 04:41:52;;;;;;;319.40;38.50;;;;;;;;;;4821911;29;20049;-92
2023/12/14 04:47:54;;;;;;;261.27;34.50;;;;;;;;;;4836155;29;20049;-91
2023/12/14 04:50:22;;;;;;;339.85;39.58;;;;;;;;;;4827976;29;20036;-91
2023/12/14 04:53:10;;;;;;;;;;;;;;;;;;;;;
2023/12/14 04:55:46;;;;;;;325.45;38.78;;;;;;;;;;4822267;29;20586;-92
2023/12/14 04:58:18;;;;;;;312.30;39.65;;;;;;;;;;4826227;29;20722;-92
2023/12/14 05:00:56;;;;;;;370.90;43.47;;;;;;;;;;4798222;29;20087;-91
2023/12/14 05:03:28;;;;;;;452.30;49.55;;;;;;;;;;4802390;29;20052;-91
2023/12/14 05:06:04;;;;;;;286.75;36.30;;;;;;;;;;4828982;29;20080;-93
2023/12/14 05:08:55;;;;;;;329.30;39.35;;;;;;;;;;4819661;29;20079;-92
2023/12/14 05:11:40;;;;;;;332.73;39.90;;;;;;;;;;4808767;29;20885;-92
2023/12/14 05:14:14;;;;;;;353.73;41.10;;;;;;;;;;4801729;29;20056;-92
2023/12/14 05:16:47;;;;;;;435.73;47.00;;;;;;;;;;4794612;29;20580;-92
2023/12/14 05:19:28;;;;;;;325.75;39.10;;;;;;;;;;4796777;29;20036;-92
2023/12/14 05:22:12;;;;;;;365.38;39.67;;;;;;;;;;4813237;29;20072;-94
2023/12/14 05:24:46;;;;;;;404.80;46.05;;;;;;;;;;4798104;29;20049;-94
2023/12/14 05:27:22;;;;;;;446.30;49.00;;;;;;;;;;4789064;29;20045;-92
2023/12/14 05:30:06;;;;;;;289.60;36.63;;;;;;;;;;4784913;29;20049;-92
2023/12/14 05:36:01;;;;;;;323.88;39.72;;;;;;;;;;4831342;29;20094;-92
2023/12/14 05:58:42;;;;;;;173.25;29.42;;;;;;;;;;4663943;30;20045;-92
2023/12/14 06:33:43;;;;;;;54.33;15.30;;;;;;;;;;4801055;29;20060;-92
2023/12/14 06:57:14;;;;;;;176.27;27.70;;;;;;;;;;4833305;29;20885;-92
2023/12/14 07:08:40;;;;;;;129.57;23.02;;;;;;;;;;4774465;29;20038;-92
